sensor_id;sensor_type;location;lat;lon;timestamp;P1;durP1;ratioP1;P2;durP2;ratioP2
54452;SDS011;40363;52.270;10.546;2023-04-01T00:01:07;4.03;;;0.95;;
54452;SDS011;40363;52.270;10.546;2023-04-01T00:03:34;1.75;;;1.15;;
54452;SDS011;40363;52.270;10.546;2023-04-01T00:06:01;4.30;;;1.33;;
54452;SDS011;40363;52.270;10.546;2023-04-01T00:08:28;4.70;;;1.33;;
54452;SDS011;40363;52.270;10.546;2023-04-01T00:10:55;2.47;;;0.80;;
54452;SDS011;40363;52.270;10.546;2023-04-01T00:13:26;5.35;;;1.20;;
54452;SDS011;40363;52.270;10.546;2023-04-01T00:15:53;1.85;;;0.90;;
54452;SDS011;40363;52.270;10.546;2023-04-01T00:18:21;3.88;;;1.30;;
54452;SDS011;40363;52.270;10.546;2023-04-01T00:20:48;3.92;;;1.10;;
54452;SDS011;40363;52.270;10.546;2023-04-01T00:23:16;3.40;;;1.17;;
54452;SDS011;40363;52.270;10.546;2023-04-01T00:25:45;3.03;;;1.10;;
54452;SDS011;40363;52.270;10.546;2023-04-01T00:28:13;6.75;;;1.63;;
54452;SDS011;40363;52.270;10.546;2023-04-01T00:30:41;3.17;;;1.02;;
54452;SDS011;40363;52.270;10.546;2023-04-01T00:33:08;2.90;;;1.20;;
54452;SDS011;40363;52.270;10.546;2023-04-01T00:35:37;3.63;;;0.98;;
54452;SDS011;40363;52.270;10.546;2023-04-01T00:38:07;2.85;;;1.00;;
54452;SDS011;40363;52.270;10.546;2023-04-01T00:40:36;3.58;;;1.33;;
54452;SDS011;40363;52.270;10.546;2023-04-01T00:43:08;3.35;;;0.93;;
54452;SDS011;40363;52.270;10.546;2023-04-01T00:45:37;3.53;;;1.05;;
54452;SDS011;40363;52.270;10.546;2023-04-01T00:48:09;6.20;;;1.52;;
54452;SDS011;40363;52.270;10.546;2023-04-01T00:50:38;2.72;;;1.23;;
54452;SDS011;40363;52.270;10.546;2023-04-01T00:53:08;4.30;;;1.00;;
54452;SDS011;40363;52.270;10.546;2023-04-01T00:55:37;6.82;;;1.35;;
54452;SDS011;40363;52.270;10.546;2023-04-01T00:58:08;4.28;;;1.10;;
54452;SDS011;40363;52.270;10.546;2023-04-01T01:00:41;3.40;;;1.45;;
54452;SDS011;40363;52.270;10.546;2023-04-01T01:03:09;3.60;;;1.02;;
54452;SDS011;40363;52.270;10.546;2023-04-01T01:05:42;5.25;;;1.08;;
54452;SDS011;40363;52.270;10.546;2023-04-01T01:08:20;1.27;;;0.80;;
54452;SDS011;40363;52.270;10.546;2023-04-01T01:10:58;2.60;;;0.88;;
54452;SDS011;40363;52.270;10.546;2023-04-01T01:13:26;2.60;;;0.82;;
54452;SDS011;40363;52.270;10.546;2023-04-01T01:16:02;2.53;;;1.08;;
54452;SDS011;40363;52.270;10.546;2023-04-01T01:18:38;4.03;;;1.15;;
54452;SDS011;40363;52.270;10.546;2023-04-01T01:24:17;3.83;;;1.02;;
54452;SDS011;40363;52.270;10.546;2023-04-01T01:26:59;2.08;;;0.40;;
54452;SDS011;40363;52.270;10.546;2023-04-01T01:29:41;1.92;;;0.70;;
54452;SDS011;40363;52.270;10.546;2023-04-01T01:35:09;5.18;;;0.77;;
54452;SDS011;40363;52.270;10.546;2023-04-01T01:37:49;1.55;;;0.90;;
54452;SDS011;40363;52.270;10.546;2023-04-01T01:40:20;1.38;;;0.60;;
54452;SDS011;40363;52.270;10.546;2023-04-01T01:42:48;1.50;;;0.60;;
54452;SDS011;40363;52.270;10.546;2023-04-01T01:45:18;3.90;;;0.90;;
54452;SDS011;40363;52.270;10.546;2023-04-01T01:47:48;2.80;;;1.00;;
54452;SDS011;40363;52.270;10.546;2023-04-01T01:50:17;2.88;;;0.93;;
54452;SDS011;40363;52.270;10.546;2023-04-01T01:52:45;3.78;;;0.77;;
54452;SDS011;40363;52.270;10.546;2023-04-01T01:55:23;1.02;;;0.60;;
54452;SDS011;40363;52.270;10.546;2023-04-01T01:57:52;8.32;;;0.70;;
54452;SDS011;40363;52.270;10.546;2023-04-01T02:00:22;3.03;;;0.90;;
54452;SDS011;40363;52.270;10.546;2023-04-01T02:02:48;4.65;;;1.25;;
54452;SDS011;40363;52.270;10.546;2023-04-01T02:05:18;3.20;;;0.68;;
54452;SDS011;40363;52.270;10.546;2023-04-01T02:07:48;1.70;;;0.80;;
54452;SDS011;40363;52.270;10.546;2023-04-01T02:10:19;4.30;;;0.85;;
54452;SDS011;40363;52.270;10.546;2023-04-01T02:12:48;2.72;;;0.52;;
54452;SDS011;40363;52.270;10.546;2023-04-01T02:15:18;1.23;;;0.55;;
54452;SDS011;40363;52.270;10.546;2023-04-01T02:17:47;1.00;;;0.80;;
54452;SDS011;40363;52.270;10.546;2023-04-01T02:20:18;1.83;;;0.70;;
54452;SDS011;40363;52.270;10.546;2023-04-01T02:22:48;1.48;;;0.90;;
54452;SDS011;40363;52.270;10.546;2023-04-01T02:25:18;3.75;;;0.77;;
54452;SDS011;40363;52.270;10.546;2023-04-01T02:27:46;1.13;;;0.70;;
54452;SDS011;40363;52.270;10.546;2023-04-01T02:30:14;4.82;;;1.00;;
54452;SDS011;40363;52.270;10.546;2023-04-01T02:32:43;1.67;;;0.93;;
54452;SDS011;40363;52.270;10.546;2023-04-01T02:35:11;5.72;;;1.55;;
54452;SDS011;40363;52.270;10.546;2023-04-01T02:37:41;1.60;;;0.73;;
54452;SDS011;40363;52.270;10.546;2023-04-01T02:40:10;0.90;;;0.50;;
54452;SDS011;40363;52.270;10.546;2023-04-01T02:42:39;1.73;;;0.88;;
54452;SDS011;40363;52.270;10.546;2023-04-01T02:45:06;4.30;;;1.02;;
54452;SDS011;40363;52.270;10.546;2023-04-01T02:47:34;2.75;;;0.80;;
54452;SDS011;40363;52.270;10.546;2023-04-01T02:50:00;2.42;;;1.27;;
54452;SDS011;40363;52.270;10.546;2023-04-01T02:52:27;0.95;;;0.75;;
54452;SDS011;40363;52.270;10.546;2023-04-01T02:54:56;4.43;;;0.63;;
54452;SDS011;40363;52.270;10.546;2023-04-01T02:57:23;6.75;;;1.15;;
54452;SDS011;40363;52.270;10.546;2023-04-01T02:59:51;3.15;;;0.95;;
54452;SDS011;40363;52.270;10.546;2023-04-01T03:02:17;3.20;;;0.85;;
54452;SDS011;40363;52.270;10.546;2023-04-01T03:04:44;2.10;;;0.90;;
54452;SDS011;40363;52.270;10.546;2023-04-01T03:07:11;3.47;;;0.80;;
54452;SDS011;40363;52.270;10.546;2023-04-01T03:09:38;3.33;;;1.25;;
54452;SDS011;40363;52.270;10.546;2023-04-01T03:12:06;1.33;;;0.70;;
54452;SDS011;40363;52.270;10.546;2023-04-01T03:14:33;1.25;;;0.77;;
54452;SDS011;40363;52.270;10.546;2023-04-01T03:16:59;3.88;;;0.93;;
54452;SDS011;40363;52.270;10.546;2023-04-01T03:19:26;0.98;;;0.85;;
54452;SDS011;40363;52.270;10.546;2023-04-01T03:21:52;1.02;;;0.80;;
54452;SDS011;40363;52.270;10.546;2023-04-01T03:24:19;7.57;;;1.25;;
54452;SDS011;40363;52.270;10.546;2023-04-01T03:26:46;1.92;;;0.88;;
54452;SDS011;40363;52.270;10.546;2023-04-01T03:29:14;6.25;;;1.02;;
54452;SDS011;40363;52.270;10.546;2023-04-01T03:31:42;3.78;;;1.20;;
54452;SDS011;40363;52.270;10.546;2023-04-01T03:34:09;4.05;;;0.98;;
54452;SDS011;40363;52.270;10.546;2023-04-01T03:36:35;4.45;;;0.90;;
54452;SDS011;40363;52.270;10.546;2023-04-01T03:39:02;5.70;;;1.20;;
54452;SDS011;40363;52.270;10.546;2023-04-01T03:41:30;12.40;;;1.40;;
54452;SDS011;40363;52.270;10.546;2023-04-01T03:43:56;5.13;;;1.10;;
54452;SDS011;40363;52.270;10.546;2023-04-01T03:46:24;3.67;;;1.10;;
54452;SDS011;40363;52.270;10.546;2023-04-01T03:48:51;3.17;;;1.23;;
54452;SDS011;40363;52.270;10.546;2023-04-01T03:51:17;2.17;;;0.93;;
54452;SDS011;40363;52.270;10.546;2023-04-01T03:53:44;1.70;;;1.00;;
54452;SDS011;40363;52.270;10.546;2023-04-01T03:56:11;2.08;;;0.90;;
54452;SDS011;40363;52.270;10.546;2023-04-01T03:58:38;3.72;;;1.02;;
54452;SDS011;40363;52.270;10.546;2023-04-01T04:01:12;2.63;;;0.70;;
54452;SDS011;40363;52.270;10.546;2023-04-01T04:03:41;1.95;;;0.88;;
54452;SDS011;40363;52.270;10.546;2023-04-01T04:06:10;3.35;;;1.00;;
54452;SDS011;40363;52.270;10.546;2023-04-01T04:08:38;2.47;;;1.10;;
54452;SDS011;40363;52.270;10.546;2023-04-01T04:11:05;2.75;;;1.05;;
54452;SDS011;40363;52.270;10.546;2023-04-01T04:13:31;1.67;;;1.02;;
54452;SDS011;40363;52.270;10.546;2023-04-01T04:15:58;3.05;;;1.63;;
54452;SDS011;40363;52.270;10.546;2023-04-01T04:18:25;2.28;;;0.77;;
54452;SDS011;40363;52.270;10.546;2023-04-01T04:20:53;1.73;;;1.02;;
54452;SDS011;40363;52.270;10.546;2023-04-01T04:23:20;1.30;;;0.65;;
54452;SDS011;40363;52.270;10.546;2023-04-01T04:25:53;1.80;;;1.27;;
54452;SDS011;40363;52.270;10.546;2023-04-01T04:30:47;1.40;;;0.77;;
54452;SDS011;40363;52.270;10.546;2023-04-01T04:33:14;1.40;;;0.95;;
54452;SDS011;40363;52.270;10.546;2023-04-01T04:35:40;4.50;;;1.00;;
54452;SDS011;40363;52.270;10.546;2023-04-01T04:38:08;5.82;;;1.20;;
54452;SDS011;40363;52.270;10.546;2023-04-01T04:40:35;4.47;;;0.88;;
54452;SDS011;40363;52.270;10.546;2023-04-01T04:43:02;2.42;;;1.02;;
54452;SDS011;40363;52.270;10.546;2023-04-01T04:45:29;3.08;;;1.00;;
54452;SDS011;40363;52.270;10.546;2023-04-01T04:47:56;7.20;;;1.20;;
54452;SDS011;40363;52.270;10.546;2023-04-01T04:50:23;2.00;;;1.00;;
54452;SDS011;40363;52.270;10.546;2023-04-01T04:52:50;1.40;;;0.90;;
54452;SDS011;40363;52.270;10.546;2023-04-01T04:55:19;2.35;;;0.60;;
54452;SDS011;40363;52.270;10.546;2023-04-01T04:57:46;3.80;;;0.98;;
54452;SDS011;40363;52.270;10.546;2023-04-01T05:00:13;3.75;;;0.90;;
54452;SDS011;40363;52.270;10.546;2023-04-01T05:02:39;3.35;;;1.13;;
54452;SDS011;40363;52.270;10.546;2023-04-01T05:05:06;1.65;;;0.90;;
54452;SDS011;40363;52.270;10.546;2023-04-01T05:07:33;2.17;;;0.82;;
54452;SDS011;40363;52.270;10.546;2023-04-01T05:10:00;1.52;;;0.90;;
54452;SDS011;40363;52.270;10.546;2023-04-01T05:12:28;5.35;;;1.00;;
54452;SDS011;40363;52.270;10.546;2023-04-01T05:14:55;4.80;;;0.88;;
54452;SDS011;40363;52.270;10.546;2023-04-01T05:17:22;2.72;;;1.33;;
54452;SDS011;40363;52.270;10.546;2023-04-01T05:19:49;2.58;;;0.90;;
54452;SDS011;40363;52.270;10.546;2023-04-01T05:22:15;5.10;;;1.15;;
54452;SDS011;40363;52.270;10.546;2023-04-01T05:24:42;2.15;;;0.90;;
54452;SDS011;40363;52.270;10.546;2023-04-01T05:27:08;3.00;;;0.93;;
54452;SDS011;40363;52.270;10.546;2023-04-01T05:29:37;4.80;;;1.27;;
54452;SDS011;40363;52.270;10.546;2023-04-01T05:32:03;2.22;;;1.27;;
54452;SDS011;40363;52.270;10.546;2023-04-01T05:34:30;5.97;;;1.20;;
54452;SDS011;40363;52.270;10.546;2023-04-01T05:36:57;1.45;;;0.80;;
54452;SDS011;40363;52.270;10.546;2023-04-01T05:39:23;3.75;;;1.30;;
54452;SDS011;40363;52.270;10.546;2023-04-01T05:41:50;1.02;;;0.80;;
54452;SDS011;40363;52.270;10.546;2023-04-01T05:44:17;2.53;;;1.00;;
54452;SDS011;40363;52.270;10.546;2023-04-01T05:46:45;1.63;;;1.08;;
54452;SDS011;40363;52.270;10.546;2023-04-01T05:49:12;1.38;;;1.13;;
54452;SDS011;40363;52.270;10.546;2023-04-01T05:51:38;2.42;;;0.98;;
54452;SDS011;40363;52.270;10.546;2023-04-01T05:54:05;3.20;;;1.10;;
54452;SDS011;40363;52.270;10.546;2023-04-01T05:56:32;2.78;;;0.88;;
54452;SDS011;40363;52.270;10.546;2023-04-01T05:58:58;2.13;;;1.10;;
54452;SDS011;40363;52.270;10.546;2023-04-01T06:01:25;2.65;;;1.00;;
54452;SDS011;40363;52.270;10.546;2023-04-01T06:03:53;3.38;;;1.05;;
54452;SDS011;40363;52.270;10.546;2023-04-01T06:06:20;1.38;;;1.00;;
54452;SDS011;40363;52.270;10.546;2023-04-01T06:08:50;2.03;;;0.90;;
54452;SDS011;40363;52.270;10.546;2023-04-01T06:11:23;2.78;;;1.10;;
54452;SDS011;40363;52.270;10.546;2023-04-01T06:14:07;2.08;;;0.85;;
54452;SDS011;40363;52.270;10.546;2023-04-01T06:16:45;1.67;;;0.80;;
54452;SDS011;40363;52.270;10.546;2023-04-01T06:19:25;2.05;;;0.93;;
54452;SDS011;40363;52.270;10.546;2023-04-01T06:22:05;4.07;;;1.00;;
54452;SDS011;40363;52.270;10.546;2023-04-01T06:24:50;5.32;;;1.42;;
54452;SDS011;40363;52.270;10.546;2023-04-01T06:27:32;3.47;;;1.10;;
54452;SDS011;40363;52.270;10.546;2023-04-01T06:30:20;2.33;;;0.85;;
54452;SDS011;40363;52.270;10.546;2023-04-01T06:38:54;1.88;;;1.35;;
54452;SDS011;40363;52.270;10.546;2023-04-01T06:41:51;1.45;;;1.08;;
54452;SDS011;40363;52.270;10.546;2023-04-01T06:44:29;4.38;;;1.10;;
54452;SDS011;40363;52.270;10.546;2023-04-01T06:47:08;2.47;;;1.85;;
54452;SDS011;40363;52.270;10.546;2023-04-01T06:49:50;2.50;;;1.25;;
54452;SDS011;40363;52.270;10.546;2023-04-01T06:52:30;2.47;;;1.30;;
54452;SDS011;40363;52.270;10.546;2023-04-01T06:55:12;3.55;;;1.17;;
54452;SDS011;40363;52.270;10.546;2023-04-01T06:57:52;1.63;;;1.00;;
54452;SDS011;40363;52.270;10.546;2023-04-01T07:00:24;2.42;;;0.80;;
54452;SDS011;40363;52.270;10.546;2023-04-01T07:02:59;2.97;;;0.90;;
54452;SDS011;40363;52.270;10.546;2023-04-01T07:05:31;2.35;;;0.73;;
54452;SDS011;40363;52.270;10.546;2023-04-01T07:08:01;1.15;;;0.70;;
54452;SDS011;40363;52.270;10.546;2023-04-01T07:10:33;1.83;;;0.65;;
54452;SDS011;40363;52.270;10.546;2023-04-01T07:13:06;4.72;;;0.80;;
54452;SDS011;40363;52.270;10.546;2023-04-01T07:15:40;2.03;;;1.25;;
54452;SDS011;40363;52.270;10.546;2023-04-01T07:18:11;0.80;;;0.70;;
54452;SDS011;40363;52.270;10.546;2023-04-01T07:20:41;1.65;;;0.60;;
54452;SDS011;40363;52.270;10.546;2023-04-01T07:23:13;2.05;;;1.08;;
54452;SDS011;40363;52.270;10.546;2023-04-01T07:25:51;1.38;;;0.60;;
54452;SDS011;40363;52.270;10.546;2023-04-01T07:28:21;1.07;;;0.60;;
54452;SDS011;40363;52.270;10.546;2023-04-01T07:30:50;2.28;;;0.68;;
54452;SDS011;40363;52.270;10.546;2023-04-01T07:33:25;2.17;;;0.60;;
54452;SDS011;40363;52.270;10.546;2023-04-01T07:36:01;2.83;;;0.70;;
54452;SDS011;40363;52.270;10.546;2023-04-01T07:38:34;3.42;;;0.75;;
54452;SDS011;40363;52.270;10.546;2023-04-01T07:41:09;3.42;;;0.55;;
54452;SDS011;40363;52.270;10.546;2023-04-01T07:49:30;0.95;;;0.60;;
54452;SDS011;40363;52.270;10.546;2023-04-01T07:52:06;0.98;;;0.50;;
54452;SDS011;40363;52.270;10.546;2023-04-01T07:57:15;0.88;;;0.60;;
54452;SDS011;40363;52.270;10.546;2023-04-01T07:59:48;0.88;;;0.57;;
54452;SDS011;40363;52.270;10.546;2023-04-01T08:02:25;1.55;;;0.40;;
54452;SDS011;40363;52.270;10.546;2023-04-01T08:05:01;1.25;;;0.68;;
54452;SDS011;40363;52.270;10.546;2023-04-01T08:07:36;0.68;;;0.40;;
54452;SDS011;40363;52.270;10.546;2023-04-01T08:10:14;1.52;;;0.88;;
54452;SDS011;40363;52.270;10.546;2023-04-01T08:12:48;0.73;;;0.38;;
54452;SDS011;40363;52.270;10.546;2023-04-01T08:15:25;2.55;;;0.55;;
54452;SDS011;40363;52.270;10.546;2023-04-01T08:17:58;1.88;;;0.40;;
54452;SDS011;40363;52.270;10.546;2023-04-01T08:20:32;1.02;;;0.47;;
54452;SDS011;40363;52.270;10.546;2023-04-01T08:23:05;0.93;;;0.50;;
54452;SDS011;40363;52.270;10.546;2023-04-01T08:25:39;0.93;;;0.50;;
54452;SDS011;40363;52.270;10.546;2023-04-01T08:28:12;0.40;;;0.40;;
54452;SDS011;40363;52.270;10.546;2023-04-01T08:30:43;1.55;;;0.30;;
54452;SDS011;40363;52.270;10.546;2023-04-01T08:33:15;2.95;;;0.50;;
54452;SDS011;40363;52.270;10.546;2023-04-01T08:35:46;1.85;;;0.50;;
54452;SDS011;40363;52.270;10.546;2023-04-01T08:38:19;0.60;;;0.40;;
54452;SDS011;40363;52.270;10.546;2023-04-01T08:41:01;1.40;;;0.50;;
54452;SDS011;40363;52.270;10.546;2023-04-01T08:43:51;0.20;;;0.20;;
54452;SDS011;40363;52.270;10.546;2023-04-01T08:49:56;1.55;;;0.40;;
54452;SDS011;40363;52.270;10.546;2023-04-01T08:52:43;0.70;;;0.40;;
54452;SDS011;40363;52.270;10.546;2023-04-01T08:55:27;0.55;;;0.30;;
54452;SDS011;40363;52.270;10.546;2023-04-01T08:58:24;3.50;;;0.40;;
54452;SDS011;40363;52.270;10.546;2023-04-01T09:01:08;2.40;;;0.40;;
54452;SDS011;40363;52.270;10.546;2023-04-01T09:03:51;0.60;;;0.40;;
54452;SDS011;40363;52.270;10.546;2023-04-01T09:06:32;2.25;;;0.50;;
54452;SDS011;40363;52.270;10.546;2023-04-01T09:09:19;0.70;;;0.38;;
54452;SDS011;40363;52.270;10.546;2023-04-01T09:15:07;2.53;;;0.40;;
54452;SDS011;40363;52.270;10.546;2023-04-01T09:18:01;1.10;;;0.60;;
54452;SDS011;40363;52.270;10.546;2023-04-01T09:20:58;0.98;;;0.68;;
54452;SDS011;40363;52.270;10.546;2023-04-01T09:23:47;0.40;;;0.20;;
54452;SDS011;40363;52.270;10.546;2023-04-01T09:26:27;0.68;;;0.40;;
54452;SDS011;40363;52.270;10.546;2023-04-01T09:31:53;0.68;;;0.40;;
54452;SDS011;40363;52.270;10.546;2023-04-01T09:37:39;0.32;;;0.32;;
54452;SDS011;40363;52.270;10.546;2023-04-01T09:40:18;0.47;;;0.30;;
54452;SDS011;40363;52.270;10.546;2023-04-01T09:43:04;1.38;;;0.45;;
54452;SDS011;40363;52.270;10.546;2023-04-01T09:45:44;1.20;;;0.30;;
54452;SDS011;40363;52.270;10.546;2023-04-01T09:48:25;0.85;;;0.30;;
54452;SDS011;40363;52.270;10.546;2023-04-01T09:51:03;0.63;;;0.30;;
54452;SDS011;40363;52.270;10.546;2023-04-01T09:53:44;0.25;;;0.25;;
54452;SDS011;40363;52.270;10.546;2023-04-01T09:56:44;0.40;;;0.22;;
54452;SDS011;40363;52.270;10.546;2023-04-01T10:02:49;0.52;;;0.30;;
54452;SDS011;40363;52.270;10.546;2023-04-01T10:15:23;0.55;;;0.30;;
54452;SDS011;40363;52.270;10.546;2023-04-01T10:18:26;0.22;;;0.20;;
54452;SDS011;40363;52.270;10.546;2023-04-01T10:21:23;0.35;;;0.30;;
54452;SDS011;40363;52.270;10.546;2023-04-01T10:24:08;0.73;;;0.30;;
54452;SDS011;40363;52.270;10.546;2023-04-01T10:27:03;0.47;;;0.40;;
54452;SDS011;40363;52.270;10.546;2023-04-01T10:29:58;0.50;;;0.32;;
54452;SDS011;40363;52.270;10.546;2023-04-01T10:45:40;1.70;;;0.50;;
54452;SDS011;40363;52.270;10.546;2023-04-01T10:48:28;1.25;;;0.40;;
54452;SDS011;40363;52.270;10.546;2023-04-01T10:51:18;1.67;;;0.55;;
54452;SDS011;40363;52.270;10.546;2023-04-01T10:54:12;0.85;;;0.22;;
54452;SDS011;40363;52.270;10.546;2023-04-01T10:56:46;0.55;;;0.40;;
54452;SDS011;40363;52.270;10.546;2023-04-01T11:05:54;0.90;;;0.30;;
54452;SDS011;40363;52.270;10.546;2023-04-01T11:12:05;0.20;;;0.20;;
54452;SDS011;40363;52.270;10.546;2023-04-01T11:24:40;0.20;;;0.20;;
54452;SDS011;40363;52.270;10.546;2023-04-01T11:27:24;1.30;;;0.30;;
54452;SDS011;40363;52.270;10.546;2023-04-01T11:30:10;1.75;;;0.30;;
54452;SDS011;40363;52.270;10.546;2023-04-01T11:32:50;0.20;;;0.20;;
54452;SDS011;40363;52.270;10.546;2023-04-01T11:38:20;0.10;;;0.10;;
54452;SDS011;40363;52.270;10.546;2023-04-01T11:41:10;0.52;;;0.20;;
54452;SDS011;40363;52.270;10.546;2023-04-01T11:43:49;0.82;;;0.30;;
54452;SDS011;40363;52.270;10.546;2023-04-01T11:46:33;0.20;;;0.20;;
54452;SDS011;40363;52.270;10.546;2023-04-01T11:49:16;0.30;;;0.30;;
54452;SDS011;40363;52.270;10.546;2023-04-01T11:52:00;0.32;;;0.20;;
54452;SDS011;40363;52.270;10.546;2023-04-01T11:54:46;0.80;;;0.30;;
54452;SDS011;40363;52.270;10.546;2023-04-01T12:00:21;2.30;;;0.40;;
54452;SDS011;40363;52.270;10.546;2023-04-01T12:03:02;0.20;;;0.20;;
54452;SDS011;40363;52.270;10.546;2023-04-01T12:05:43;0.43;;;0.30;;
54452;SDS011;40363;52.270;10.546;2023-04-01T12:08:18;0.35;;;0.30;;
54452;SDS011;40363;52.270;10.546;2023-04-01T12:10:55;0.40;;;0.30;;
54452;SDS011;40363;52.270;10.546;2023-04-01T12:13:31;1.55;;;0.38;;
54452;SDS011;40363;52.270;10.546;2023-04-01T12:16:18;1.15;;;0.30;;
54452;SDS011;40363;52.270;10.546;2023-04-01T12:18:56;0.95;;;0.40;;
54452;SDS011;40363;52.270;10.546;2023-04-01T12:21:28;0.32;;;0.30;;
54452;SDS011;40363;52.270;10.546;2023-04-01T12:26:56;1.33;;;0.50;;
54452;SDS011;40363;52.270;10.546;2023-04-01T12:29:41;2.38;;;0.45;;
54452;SDS011;40363;52.270;10.546;2023-04-01T12:32:25;0.93;;;0.47;;
54452;SDS011;40363;52.270;10.546;2023-04-01T12:35:10;0.68;;;0.43;;
54452;SDS011;40363;52.270;10.546;2023-04-01T12:37:46;5.40;;;0.75;;
54452;SDS011;40363;52.270;10.546;2023-04-01T12:40:24;0.40;;;0.40;;
54452;SDS011;40363;52.270;10.546;2023-04-01T12:43:05;0.65;;;0.52;;
54452;SDS011;40363;52.270;10.546;2023-04-01T12:45:57;3.03;;;0.75;;
54452;SDS011;40363;52.270;10.546;2023-04-01T12:48:37;0.45;;;0.40;;
54452;SDS011;40363;52.270;10.546;2023-04-01T12:51:33;2.40;;;1.05;;
54452;SDS011;40363;52.270;10.546;2023-04-01T12:54:20;1.90;;;0.50;;
54452;SDS011;40363;52.270;10.546;2023-04-01T12:57:09;0.52;;;0.40;;
54452;SDS011;40363;52.270;10.546;2023-04-01T12:59:54;1.80;;;0.82;;
54452;SDS011;40363;52.270;10.546;2023-04-01T13:02:37;0.82;;;0.40;;
54452;SDS011;40363;52.270;10.546;2023-04-01T13:08:22;0.40;;;0.40;;
54452;SDS011;40363;52.270;10.546;2023-04-01T13:11:05;0.45;;;0.40;;
54452;SDS011;40363;52.270;10.546;2023-04-01T13:13:53;1.83;;;0.88;;
54452;SDS011;40363;52.270;10.546;2023-04-01T13:16:36;1.85;;;0.45;;
54452;SDS011;40363;52.270;10.546;2023-04-01T13:19:08;0.50;;;0.40;;
54452;SDS011;40363;52.270;10.546;2023-04-01T13:21:46;0.55;;;0.45;;
54452;SDS011;40363;52.270;10.546;2023-04-01T13:27:13;2.08;;;0.68;;
54452;SDS011;40363;52.270;10.546;2023-04-01T13:29:46;0.52;;;0.50;;
54452;SDS011;40363;52.270;10.546;2023-04-01T13:32:26;4.75;;;1.33;;
54452;SDS011;40363;52.270;10.546;2023-04-01T13:35:02;2.28;;;0.65;;
54452;SDS011;40363;52.270;10.546;2023-04-01T13:37:43;1.25;;;0.70;;
54452;SDS011;40363;52.270;10.546;2023-04-01T13:40:33;1.10;;;0.65;;
54452;SDS011;40363;52.270;10.546;2023-04-01T13:43:08;0.93;;;0.80;;
54452;SDS011;40363;52.270;10.546;2023-04-01T13:49:16;1.27;;;1.13;;
54452;SDS011;40363;52.270;10.546;2023-04-01T13:51:58;1.17;;;0.68;;
54452;SDS011;40363;52.270;10.546;2023-04-01T13:54:37;2.05;;;0.90;;
54452;SDS011;40363;52.270;10.546;2023-04-01T13:57:19;1.65;;;1.13;;
54452;SDS011;40363;52.270;10.546;2023-04-01T14:00:00;1.65;;;1.00;;
54452;SDS011;40363;52.270;10.546;2023-04-01T14:02:45;0.98;;;0.75;;
54452;SDS011;40363;52.270;10.546;2023-04-01T14:05:29;3.08;;;0.70;;
54452;SDS011;40363;52.270;10.546;2023-04-01T14:08:08;1.50;;;0.70;;
54452;SDS011;40363;52.270;10.546;2023-04-01T14:10:43;0.98;;;0.70;;
54452;SDS011;40363;52.270;10.546;2023-04-01T14:13:21;0.80;;;0.55;;
54452;SDS011;40363;52.270;10.546;2023-04-01T14:15:56;1.05;;;0.73;;
54452;SDS011;40363;52.270;10.546;2023-04-01T14:18:45;2.75;;;0.77;;
54452;SDS011;40363;52.270;10.546;2023-04-01T14:21:28;2.03;;;0.70;;
54452;SDS011;40363;52.270;10.546;2023-04-01T14:27:07;0.93;;;0.70;;
54452;SDS011;40363;52.270;10.546;2023-04-01T14:29:47;0.88;;;0.73;;
54452;SDS011;40363;52.270;10.546;2023-04-01T14:32:25;1.35;;;1.00;;
54452;SDS011;40363;52.270;10.546;2023-04-01T14:35:09;1.05;;;0.75;;
54452;SDS011;40363;52.270;10.546;2023-04-01T14:37:52;1.48;;;0.80;;
54452;SDS011;40363;52.270;10.546;2023-04-01T14:40:47;1.35;;;0.60;;
54452;SDS011;40363;52.270;10.546;2023-04-01T14:43:25;0.90;;;0.70;;
54452;SDS011;40363;52.270;10.546;2023-04-01T14:46:14;0.90;;;0.70;;
54452;SDS011;40363;52.270;10.546;2023-04-01T14:48:53;0.93;;;0.70;;
54452;SDS011;40363;52.270;10.546;2023-04-01T14:51:28;1.35;;;0.80;;
54452;SDS011;40363;52.270;10.546;2023-04-01T14:53:59;1.05;;;0.73;;
54452;SDS011;40363;52.270;10.546;2023-04-01T14:56:41;2.80;;;1.25;;
54452;SDS011;40363;52.270;10.546;2023-04-01T14:59:10;1.65;;;1.00;;
54452;SDS011;40363;52.270;10.546;2023-04-01T15:01:46;0.93;;;0.85;;
54452;SDS011;40363;52.270;10.546;2023-04-01T15:07:21;1.67;;;1.08;;
54452;SDS011;40363;52.270;10.546;2023-04-01T15:10:05;0.98;;;0.85;;
54452;SDS011;40363;52.270;10.546;2023-04-01T15:12:48;1.50;;;1.10;;
54452;SDS011;40363;52.270;10.546;2023-04-01T15:15:27;3.17;;;1.38;;
54452;SDS011;40363;52.270;10.546;2023-04-01T15:18:07;1.55;;;0.93;;
54452;SDS011;40363;52.270;10.546;2023-04-01T15:23:29;2.30;;;1.10;;
54452;SDS011;40363;52.270;10.546;2023-04-01T15:29:23;0.98;;;0.82;;
54452;SDS011;40363;52.270;10.546;2023-04-01T15:32:02;1.50;;;0.73;;
54452;SDS011;40363;52.270;10.546;2023-04-01T15:34:41;2.35;;;1.27;;
54452;SDS011;40363;52.270;10.546;2023-04-01T15:37:16;1.13;;;0.82;;
54452;SDS011;40363;52.270;10.546;2023-04-01T15:39:54;5.32;;;1.58;;
54452;SDS011;40363;52.270;10.546;2023-04-01T15:42:30;1.03;;;0.87;;
54452;SDS011;40363;52.270;10.546;2023-04-01T15:45:10;0.77;;;0.63;;
54452;SDS011;40363;52.270;10.546;2023-04-01T15:47:44;2.35;;;0.90;;
54452;SDS011;40363;52.270;10.546;2023-04-01T15:53:10;1.05;;;0.60;;
54452;SDS011;40363;52.270;10.546;2023-04-01T15:55:54;1.98;;;0.65;;
54452;SDS011;40363;52.270;10.546;2023-04-01T15:58:29;1.83;;;1.60;;
54452;SDS011;40363;52.270;10.546;2023-04-01T16:01:09;1.75;;;1.08;;
54452;SDS011;40363;52.270;10.546;2023-04-01T16:03:50;0.93;;;0.85;;
54452;SDS011;40363;52.270;10.546;2023-04-01T16:06:31;1.70;;;0.90;;
54452;SDS011;40363;52.270;10.546;2023-04-01T16:12:04;1.42;;;0.73;;
54452;SDS011;40363;52.270;10.546;2023-04-01T16:14:39;1.40;;;1.00;;
54452;SDS011;40363;52.270;10.546;2023-04-01T16:17:27;1.20;;;0.80;;
54452;SDS011;40363;52.270;10.546;2023-04-01T16:20:12;1.17;;;0.80;;
54452;SDS011;40363;52.270;10.546;2023-04-01T16:22:45;1.33;;;1.02;;
54452;SDS011;40363;52.270;10.546;2023-04-01T16:25:20;1.25;;;0.93;;
54452;SDS011;40363;52.270;10.546;2023-04-01T16:27:56;1.58;;;0.82;;
54452;SDS011;40363;52.270;10.546;2023-04-01T16:30:40;2.78;;;0.80;;
54452;SDS011;40363;52.270;10.546;2023-04-01T16:33:15;0.75;;;0.60;;
54452;SDS011;40363;52.270;10.546;2023-04-01T16:35:49;1.80;;;0.75;;
54452;SDS011;40363;52.270;10.546;2023-04-01T16:38:22;0.88;;;0.70;;
54452;SDS011;40363;52.270;10.546;2023-04-01T16:41:00;1.13;;;0.60;;
54452;SDS011;40363;52.270;10.546;2023-04-01T16:43:38;0.90;;;0.70;;
54452;SDS011;40363;52.270;10.546;2023-04-01T16:49:04;1.98;;;1.02;;
54452;SDS011;40363;52.270;10.546;2023-04-01T16:51:48;1.73;;;0.90;;
54452;SDS011;40363;52.270;10.546;2023-04-01T16:54:26;1.10;;;1.00;;
54452;SDS011;40363;52.270;10.546;2023-04-01T16:56:55;1.30;;;0.80;;
54452;SDS011;40363;52.270;10.546;2023-04-01T16:59:29;1.80;;;1.00;;
54452;SDS011;40363;52.270;10.546;2023-04-01T17:02:02;6.97;;;1.02;;
54452;SDS011;40363;52.270;10.546;2023-04-01T17:04:38;2.35;;;1.05;;
54452;SDS011;40363;52.270;10.546;2023-04-01T17:07:20;1.17;;;0.98;;
54452;SDS011;40363;52.270;10.546;2023-04-01T17:10:04;1.75;;;1.25;;
54452;SDS011;40363;52.270;10.546;2023-04-01T17:12:45;1.55;;;0.95;;
54452;SDS011;40363;52.270;10.546;2023-04-01T17:15:25;1.70;;;1.23;;
54452;SDS011;40363;52.270;10.546;2023-04-01T17:17:59;2.10;;;1.25;;
54452;SDS011;40363;52.270;10.546;2023-04-01T17:20:38;1.58;;;1.08;;